INFORMACIÓN METAR y TAF
METAR FOR LSZR
ADDS - METARS form results

(0709 UTC 15 April 2021)
Data provider http://aviationweather.gov/metar/data/
 
METAR text: LSZR 150650Z AUTO VRB02KT 9999 SCT025 BKN031 03/00 Q1025
Conditions at: LSZR (RHEINECK/ALTENRH, CH) observed 0650 UTC 15 April 2021
Temperature: 3.0°C (37°F)
Dewpoint: 0.0°C (32°F) [RH = 81%]
Pressure (altimeter): 30.27 inches Hg (1025.0 mb)
Winds: variable direction winds at 2 MPH (2 knots; 1.0 m/s)
Visibility: 6 or more miles (10+ km)
Ceiling: 3100 feet AGL
Clouds: scattered clouds at 2500 feet AGL
broken clouds at 3100 feet AGL
Weather: no significant weather observed at this time

METAR text: LSZR 150620Z 01005KT 330V040 9999 BKN025 03/M00 Q1024 NOSIG RMK C
Conditions at: LSZR (RHEINECK/ALTENRH, CH) observed 0620 UTC 15 April 2021
Temperature: 3.0°C (37°F)
Dewpoint: 0.0°C (32°F) [RH = 81%]
Pressure (altimeter): 30.24 inches Hg (1024.0 mb)
Winds: from the N (10 degrees) at 6 MPH (5 knots; 2.6 m/s)
Visibility: 6 or more miles (10+ km)
Ceiling: 2500 feet AGL
Clouds: broken clouds at 2500 feet AGL
Weather: no significant weather observed at this time

Forecast for: LSZR (RHEINECK/ALTENRH, CH)
Text: TAF LSZR 150525Z 1506/1515 VRB02KT 9999 BKN030
Forecast period: 0600 to 0800 UTC 15 April 2021
Forecast type: FROM: standard forecast or significant change
Winds: variable direction winds at 2 MPH (2 knots; 1.0 m/s)
Visibility: 6 or more miles (10+ km)
Ceiling: 3000 feet AGL
Clouds: broken clouds at 3000 feet AGL
Weather: no significant weather forecast for this period
Text: BECMG 1508/1511 03010KT
Forecast period: 0800 to 1500 UTC 15 April 2021
Forecast type: BECOMING: Conditions expected to become as follows by 1100 UTC 15 April 2021
Winds: from the NNE (30 degrees) at 12 MPH (10 knots; 5.1 m/s)
Visibility: 6 or more miles (10+ km)
Ceiling: 3000 feet AGL
Clouds: broken clouds at 3000 feet AGL
Weather: no significant weather forecast for this period

 MAPA DE AEROPUERTO

 INFORMACIÓN DE PISTA
Pista 10 Longitud 0 ft Ancho 0 ft
Elevación 1306 ft Umbral desplazado 0 ft Rumbo de pista 0
Pista 28 Longitud 0 ft Ancho 0 ft
Elevación 1306 ft Umbral desplazado 0 ft Rumbo de pista 0
Pista 10L Longitud 1969 ft Ancho 75 ft
Elevación 0 ft Umbral desplazado 0 ft Rumbo de pista 97
Pista 28R Longitud 1969 ft Ancho 75 ft
Elevación 0 ft Umbral desplazado 0 ft Rumbo de pista 277
Pista 10R Longitud 4922 ft Ancho 98 ft
Elevación 1306 ft Umbral desplazado 328 ft Rumbo de pista 99
Pista 28L Longitud 4922 ft Ancho 98 ft
Elevación 1306 ft Umbral desplazado 246 ft Rumbo de pista 279

 FRECUANCIAS DEL AEROPUERTO
Tipo ACC Nombre ZURICH RAD Frecuencia 133.9 MHZ
Tipo ARR Nombre ZURICH ARR Frecuencia 119.925 MHZ
Tipo ATIS Nombre ATIS Frecuencia 123.775 MHZ
Tipo FIS Nombre Zurich Inf Frecuencia 124.7 MHZ
Tipo GND Nombre GND Frecuencia 121.8 MHZ
Tipo TWR Nombre TWR Frecuencia 118.65 MHZ

 RADIO AYUDAS DEL AEROPUERTO



Powered by Virtual Airlines Manager [v2.6.2]